Time;durP1;ratioP1;P1;durP2;ratioP2;P2;SDS_P1;SDS_P2;PMS_P1;PMS_P2;Temp;Humidity;BMP_temperature;BMP_pressure;BME280_temperature;BME280_humidity;BME280_pressure;Samples;Min_cycle;Max_cycle;Signal;HPM_P1;HPM_P2
2022/11/01 04:46:56;;;;;;;28.30;26.03;;;13.00;99.90;;;;;;4930956;28;20505;-70
2022/11/01 04:49:22;;;;;;;27.37;25.23;;;13.00;99.90;;;;;;4933207;29;20504;-69
2022/11/01 04:51:49;;;;;;;26.57;24.77;;;13.00;99.90;;;;;;4933189;29;20457;-69
2022/11/01 04:54:16;;;;;;;29.47;26.67;;;12.90;99.90;;;;;;4933284;29;20563;-69
2022/11/01 04:56:42;;;;;;;27.13;24.77;;;12.90;99.90;;;;;;4933566;29;20453;-71
2022/11/01 04:59:09;;;;;;;27.47;24.97;;;12.90;99.90;;;;;;4933129;29;20452;-71
2022/11/01 05:01:36;;;;;;;29.80;27.50;;;12.80;99.90;;;;;;4933246;29;20449;-72
2022/11/01 05:04:04;;;;;;;29.60;27.17;;;12.80;99.90;;;;;;4933206;29;20445;-71
2022/11/01 05:06:31;;;;;;;28.13;25.60;;;12.80;99.90;;;;;;4933185;29;20453;-72
2022/11/01 05:08:58;;;;;;;29.33;26.83;;;12.80;99.90;;;;;;4933228;29;20485;-71
2022/11/01 05:11:25;;;;;;;27.47;25.03;;;12.80;99.90;;;;;;4933233;29;20461;-71
2022/11/01 05:13:51;;;;;;;27.03;24.93;;;12.80;99.90;;;;;;4932957;29;20452;-71
2022/11/01 05:16:18;;;;;;;28.47;26.17;;;12.80;99.90;;;;;;4932839;29;20461;-71
2022/11/01 05:18:45;;;;;;;27.63;25.23;;;12.80;99.90;;;;;;4932778;29;20452;-71
2022/11/01 05:21:13;;;;;;;26.60;24.80;;;12.80;99.90;;;;;;4933053;29;20773;-70
2022/11/01 05:23:40;;;;;;;28.33;26.33;;;12.90;99.90;;;;;;4932934;29;20460;-71
2022/11/01 05:26:06;;;;;;;27.80;25.70;;;12.90;99.90;;;;;;4932839;29;20533;-70
2022/11/01 05:28:33;;;;;;;29.77;26.97;;;13.00;99.90;;;;;;4932472;29;20862;-70
2022/11/01 05:31:00;;;;;;;26.57;23.83;;;13.00;99.90;;;;;;4932733;29;20804;-71
2022/11/01 05:33:27;;;;;;;28.37;25.20;;;12.90;99.90;;;;;;4932903;29;20453;-71
2022/11/01 05:35:53;;;;;;;26.60;24.47;;;12.90;99.90;;;;;;4932659;29;20450;-70
2022/11/01 05:38:21;;;;;;;27.97;25.73;;;12.90;99.90;;;;;;4932718;29;20445;-70
2022/11/01 05:40:49;;;;;;;26.77;24.77;;;12.90;99.90;;;;;;4934754;29;20461;-70
2022/11/01 05:43:16;;;;;;;28.50;25.63;;;12.90;99.90;;;;;;4933476;29;20528;-70
2022/11/01 05:45:42;;;;;;;27.90;25.80;;;12.90;99.90;;;;;;4933059;29;20457;-70
2022/11/01 05:48:10;;;;;;;28.90;26.50;;;13.00;99.90;;;;;;4949528;28;20515;-70
2022/11/01 05:50:37;;;;;;;28.33;26.03;;;13.00;99.90;;;;;;4951457;28;20520;-70
2022/11/01 05:53:05;;;;;;;28.53;26.27;;;13.00;99.90;;;;;;4951383;28;20634;-70
2022/11/01 05:55:34;;;;;;;28.87;26.33;;;13.00;99.90;;;;;;4951242;28;20452;-71
2022/11/01 05:58:00;;;;;;;29.77;27.40;;;13.10;99.90;;;;;;4951352;28;20980;-71
2022/11/01 06:00:27;;;;;;;30.73;28.30;;;13.00;99.90;;;;;;4951615;28;20460;-71
2022/11/01 06:02:56;;;;;;;29.63;27.17;;;13.10;99.90;;;;;;4951409;28;20453;-71
2022/11/01 06:05:23;;;;;;;29.23;26.90;;;13.00;99.90;;;;;;4951260;29;20978;-71
2022/11/01 06:07:50;;;;;;;30.10;27.60;;;13.00;99.90;;;;;;4951161;28;20813;-71
2022/11/01 06:10:16;;;;;;;29.03;27.03;;;12.90;99.90;;;;;;4951217;28;20460;-72
2022/11/01 06:12:45;;;;;;;28.93;26.80;;;12.90;99.90;;;;;;4951621;28;20456;-70
2022/11/01 06:15:11;;;;;;;30.23;27.90;;;12.90;99.90;;;;;;4951350;28;20452;-71
2022/11/01 06:17:38;;;;;;;28.27;26.13;;;12.90;99.90;;;;;;4950885;28;20459;-71
2022/11/01 06:20:06;;;;;;;28.03;25.90;;;12.90;99.90;;;;;;4950899;28;20976;-71
2022/11/01 06:22:35;;;;;;;29.90;27.20;;;13.00;99.90;;;;;;4950991;28;20986;-71
2022/11/01 06:25:01;;;;;;;28.33;26.23;;;13.00;99.90;;;;;;4950950;28;20547;-71
2022/11/01 06:27:28;;;;;;;29.17;27.27;;;13.00;99.90;;;;;;4951536;28;20465;-73
2022/11/01 06:29:57;;;;;;;27.83;25.83;;;13.20;99.90;;;;;;4951162;28;20491;-72
2022/11/01 06:32:23;;;;;;;28.13;26.13;;;13.20;99.90;;;;;;4950751;28;20547;-71
2022/11/01 06:34:50;;;;;;;28.47;26.33;;;13.20;99.90;;;;;;4950948;28;20453;-72
2022/11/01 06:37:17;;;;;;;28.17;26.27;;;13.40;99.90;;;;;;4950936;28;20453;-72
2022/11/01 06:39:43;;;;;;;28.03;25.97;;;13.50;99.90;;;;;;4951237;28;20456;-72
2022/11/01 06:42:10;;;;;;;29.63;27.20;;;13.50;99.90;;;;;;4951011;28;20460;-72
2022/11/01 06:44:37;;;;;;;26.13;24.43;;;13.50;99.90;;;;;;4950917;28;20472;-71
2022/11/01 06:47:05;;;;;;;24.57;22.73;;;13.50;99.90;;;;;;4950729;28;20699;-70
2022/11/01 06:49:32;;;;;;;26.30;24.10;;;13.60;99.90;;;;;;4949201;28;20492;-71
2022/11/01 06:51:58;;;;;;;26.50;24.23;;;13.70;99.90;;;;;;4951613;28;20449;-71
2022/11/01 06:54:25;;;;;;;28.27;25.77;;;13.80;99.90;;;;;;4951387;28;20463;-73
2022/11/01 06:56:52;;;;;;;22.70;21.13;;;13.80;99.90;;;;;;4951309;28;20449;-73
2022/11/01 06:59:19;;;;;;;23.93;22.47;;;13.90;99.90;;;;;;4949862;28;20715;-73
2022/11/01 07:01:45;;;;;;;26.47;24.40;;;13.90;99.90;;;;;;4954940;28;20820;-74
2022/11/01 07:04:13;;;;;;;26.27;24.47;;;14.10;99.90;;;;;;4955087;28;20886;-74
2022/11/01 07:06:40;;;;;;;23.17;21.83;;;14.10;99.90;;;;;;4955032;28;20457;-74
2022/11/01 07:09:07;;;;;;;22.07;20.47;;;14.20;99.90;;;;;;4954922;28;21005;-74
2022/11/01 07:11:34;;;;;;;20.83;19.73;;;14.50;99.90;;;;;;4954669;28;20963;-74
2022/11/01 07:14:00;;;;;;;20.30;19.00;;;14.70;99.90;;;;;;4955119;28;20452;-74
2022/11/01 07:16:28;;;;;;;23.70;22.13;;;15.00;99.90;;;;;;4955132;28;20459;-74
2022/11/01 07:18:55;;;;;;;23.53;21.83;;;15.00;99.90;;;;;;4955068;28;20548;-74
2022/11/01 07:21:23;;;;;;;20.50;19.30;;;15.10;99.90;;;;;;4953171;28;20449;-74
2022/11/01 07:23:51;;;;;;;20.83;19.53;;;15.10;99.90;;;;;;4954814;28;20445;-73
2022/11/01 07:26:18;;;;;;;22.23;21.03;;;15.20;99.90;;;;;;4954719;29;20453;-73
2022/11/01 07:28:45;;;;;;;23.70;21.93;;;15.20;99.90;;;;;;4954651;28;20822;-73
2022/11/01 07:31:11;;;;;;;22.00;20.73;;;15.20;99.90;;;;;;4954467;28;20464;-72
2022/11/01 07:33:38;;;;;;;21.97;20.57;;;15.20;99.90;;;;;;4954344;28;20449;-72
2022/11/01 07:36:05;;;;;;;21.33;20.00;;;15.30;99.90;;;;;;4954388;28;20622;-72
2022/11/01 07:38:33;;;;;;;21.20;20.07;;;15.20;99.90;;;;;;4954308;28;20833;-73
2022/11/01 07:41:01;;;;;;;22.20;20.80;;;15.30;99.90;;;;;;4954551;28;20464;-70
2022/11/01 07:43:28;;;;;;;22.77;21.10;;;15.40;99.90;;;;;;4954630;28;20571;-70
2022/11/01 07:45:58;;;;;;;21.90;20.50;;;15.30;99.90;;;;;;4954385;28;20452;-70
2022/11/01 07:48:25;;;;;;;21.60;20.47;;;15.50;99.90;;;;;;4954447;28;20484;-70
2022/11/01 07:50:56;;;;;;;22.40;20.70;;;15.50;99.90;;;;;;4954272;28;20811;-71
2022/11/01 07:53:22;;;;;;;22.20;20.70;;;15.60;99.90;;;;;;4954229;28;20464;-70
2022/11/01 07:55:51;;;;;;;22.43;20.93;;;15.50;99.90;;;;;;4954140;28;20541;-70
2022/11/01 07:58:18;;;;;;;21.00;19.70;;;15.50;99.90;;;;;;4954202;28;20481;-71
2022/11/01 08:00:45;;;;;;;22.47;20.87;;;15.50;99.90;;;;;;4954329;28;20449;-71
2022/11/01 08:03:14;;;;;;;21.17;19.47;;;15.50;99.90;;;;;;4954599;28;20452;-71
2022/11/01 08:05:42;;;;;;;21.20;19.70;;;15.50;99.90;;;;;;4954264;28;20449;-71
2022/11/01 08:08:09;;;;;;;20.33;18.90;;;15.50;99.90;;;;;;4954005;28;20449;-71
2022/11/01 08:10:37;;;;;;;21.80;20.07;;;15.60;99.90;;;;;;4953959;28;20453;-72
2022/11/01 08:13:06;;;;;;;22.50;21.00;;;15.70;99.90;;;;;;4953996;28;20460;-71
2022/11/01 08:15:34;;;;;;;21.17;19.87;;;15.90;99.90;;;;;;4954046;28;20459;-71
2022/11/01 08:18:01;;;;;;;21.00;19.50;;;15.90;99.90;;;;;;4954235;28;20453;-71
2022/11/01 08:20:28;;;;;;;18.90;17.90;;;16.00;99.90;;;;;;4954198;28;20470;-71
2022/11/01 08:22:55;;;;;;;18.10;17.00;;;16.10;99.90;;;;;;4954244;28;20455;-71
2022/11/01 08:25:22;;;;;;;18.87;17.57;;;16.20;99.90;;;;;;4954007;28;20467;-72
2022/11/01 08:27:49;;;;;;;19.00;17.70;;;16.30;99.90;;;;;;4953710;28;20459;-72
2022/11/01 08:30:19;;;;;;;20.07;18.87;;;16.40;99.90;;;;;;4953492;28;20508;-71
2022/11/01 08:32:46;;;;;;;20.53;19.20;;;16.50;99.90;;;;;;4953759;28;20452;-70
2022/11/01 08:35:13;;;;;;;20.03;18.93;;;16.60;99.90;;;;;;4953773;28;20472;-70
2022/11/01 08:37:48;;;;;;;20.63;19.03;;;16.70;99.90;;;;;;4953652;28;20452;-70
2022/11/01 08:40:14;;;;;;;20.53;19.03;;;16.90;99.90;;;;;;4953649;28;20444;-71
2022/11/01 08:42:41;;;;;;;19.17;18.27;;;16.90;99.90;;;;;;4954895;28;20449;-71
2022/11/01 08:45:08;;;;;;;18.90;17.70;;;17.10;99.90;;;;;;4953608;28;20468;-70
2022/11/01 08:47:36;;;;;;;18.27;17.07;;;17.00;99.90;;;;;;4953256;28;20842;-69
2022/11/01 08:50:03;;;;;;;18.93;17.73;;;17.10;99.90;;;;;;4952246;28;20592;-71
2022/11/01 08:52:30;;;;;;;18.63;17.53;;;17.10;99.90;;;;;;4953197;29;20449;-71
2022/11/01 08:54:56;;;;;;;18.23;17.17;;;17.30;99.90;;;;;;4953609;28;20449;-70
2022/11/01 08:57:23;;;;;;;18.87;17.30;;;17.40;99.90;;;;;;4953181;28;20797;-70
2022/11/01 08:59:50;;;;;;;17.97;16.97;;;17.50;99.90;;;;;;4953252;28;20823;-70
2022/11/01 09:02:17;;;;;;;17.90;16.90;;;17.60;99.90;;;;;;4953522;28;20457;-70
2022/11/01 09:04:45;;;;;;;17.83;16.67;;;17.60;99.90;;;;;;4953829;28;20449;-72
2022/11/01 09:07:12;;;;;;;17.27;16.27;;;17.70;99.90;;;;;;4954070;28;20456;-70
2022/11/01 09:09:39;;;;;;;15.50;14.73;;;17.80;99.90;;;;;;4953442;28;20487;-70
2022/11/01 09:12:06;;;;;;;15.70;14.90;;;17.80;99.90;;;;;;4953390;28;20474;-70
2022/11/01 09:14:34;;;;;;;17.43;16.40;;;17.60;99.90;;;;;;4953387;28;20939;-70
2022/11/01 09:17:00;;;;;;;19.07;18.00;;;17.60;99.90;;;;;;4953239;28;20459;-71
2022/11/01 09:19:27;;;;;;;17.50;16.60;;;17.70;99.90;;;;;;4953413;28;20840;-71
2022/11/01 09:21:55;;;;;;;16.53;15.73;;;17.80;99.90;;;;;;4952529;28;20856;-71
2022/11/01 09:24:22;;;;;;;16.53;15.40;;;17.80;99.90;;;;;;4952963;28;20449;-71
2022/11/01 09:26:50;;;;;;;17.70;16.60;;;17.80;99.90;;;;;;4953065;28;20505;-70
2022/11/01 09:29:19;;;;;;;16.80;15.80;;;17.80;99.90;;;;;;4953042;28;20488;-70
2022/11/01 09:31:50;;;;;;;18.07;16.43;;;17.90;99.90;;;;;;4952834;28;20544;-71
2022/11/01 09:34:17;;;;;;;16.43;15.53;;;17.90;99.90;;;;;;4952979;28;20445;-70
2022/11/01 09:36:44;;;;;;;15.90;15.10;;;18.20;99.90;;;;;;4953043;28;20873;-70
2022/11/01 09:39:15;;;;;;;16.13;15.33;;;18.30;99.90;;;;;;4952788;29;20965;-70
2022/11/01 09:41:46;;;;;;;16.00;15.07;;;18.50;99.90;;;;;;4953229;28;20974;-69
2022/11/01 09:44:16;;;;;;;15.77;14.90;;;18.70;99.90;;;;;;4952656;28;20472;-69
2022/11/01 09:46:47;;;;;;;15.40;14.27;;;19.00;99.90;;;;;;4952147;28;20476;-70
2022/11/01 09:49:21;;;;;;;16.50;15.40;;;19.10;99.90;;;;;;4952463;28;20487;-69
2022/11/01 09:51:48;;;;;;;14.60;13.90;;;19.10;99.90;;;;;;4952017;28;20453;-70
2022/11/01 09:54:17;;;;;;;15.17;13.87;;;19.50;99.90;;;;;;4952062;28;20448;-69
2022/11/01 09:56:51;;;;;;;14.43;13.53;;;20.30;99.90;;;;;;4952169;28;20453;-68
2022/11/01 09:59:28;;;;;;;12.90;12.30;;;20.40;99.90;;;;;;4951757;28;20448;-69
2022/11/01 10:02:05;;;;;;;12.60;12.00;;;20.40;99.90;;;;;;4951760;28;20939;-70
2022/11/01 10:05:04;;;;;;;12.53;12.03;;;21.10;99.90;;;;;;4951865;28;20452;-70
2022/11/01 10:07:41;;;;;;;13.50;12.90;;;21.80;99.90;;;;;;4951793;28;20574;-71
2022/11/01 10:10:22;;;;;;;11.30;10.90;;;22.70;99.90;;;;;;4951583;28;20480;-70
2022/11/01 10:13:01;;;;;;;11.93;11.13;;;22.70;99.90;;;;;;4951624;28;20457;-70
2022/11/01 10:15:45;;;;;;;11.90;11.40;;;23.20;99.90;;;;;;4951784;28;20939;-70
2022/11/01 10:18:25;;;;;;;12.07;11.57;;;23.80;99.90;;;;;;4951829;28;20448;-70
2022/11/01 10:20:52;;;;;;;11.00;10.60;;;24.00;99.90;;;;;;4951528;28;20449;-70
2022/11/01 10:23:34;;;;;;;11.47;11.07;;;23.90;99.90;;;;;;4951465;28;20512;-70
2022/11/01 10:26:03;;;;;;;12.50;12.00;;;24.00;99.60;;;;;;4951704;28;20453;-70
2022/11/01 10:28:42;;;;;;;11.30;10.90;;;24.30;99.20;;;;;;4951517;28;20448;-70
2022/11/01 10:31:15;;;;;;;11.47;10.90;;;24.30;98.80;;;;;;4951632;28;20451;-71
2022/11/01 10:33:47;;;;;;;10.93;10.57;;;24.40;98.20;;;;;;4952108;28;20452;-70
2022/11/01 10:36:18;;;;;;;10.93;10.63;;;24.50;97.50;;;;;;4955508;28;20456;-69
2022/11/01 10:38:46;;;;;;;12.00;11.50;;;24.60;97.90;;;;;;4955341;28;20966;-70
2022/11/01 10:41:21;;;;;;;11.30;10.90;;;25.10;97.40;;;;;;4955824;29;20456;-70
2022/11/01 10:43:52;;;;;;;12.30;11.80;;;25.60;95.40;;;;;;4955338;29;20563;-70
2022/11/01 10:46:23;;;;;;;12.00;11.60;;;25.70;94.80;;;;;;4955134;29;20680;-73
2022/11/01 10:48:53;;;;;;;11.93;11.53;;;25.60;94.90;;;;;;4955152;29;20467;-70
2022/11/01 10:51:23;;;;;;;11.33;10.93;;;26.10;93.10;;;;;;4955393;29;21029;-70
2022/11/01 10:53:53;;;;;;;12.33;11.83;;;25.80;93.50;;;;;;4953469;29;21013;-70
2022/11/01 10:56:26;;;;;;;11.90;11.50;;;25.60;93.40;;;;;;4955070;29;20459;-70
2022/11/01 10:58:59;;;;;;;11.80;11.40;;;25.30;93.40;;;;;;4953933;29;20568;-70
2022/11/01 11:01:29;;;;;;;11.87;11.37;;;25.20;93.50;;;;;;4954773;29;20449;-71
2022/11/01 11:04:00;;;;;;;12.13;11.63;;;24.60;94.30;;;;;;4954713;28;20535;-69
2022/11/01 11:06:27;;;;;;;12.10;11.70;;;24.20;93.90;;;;;;4954663;28;20463;-70
2022/11/01 11:08:56;;;;;;;12.13;11.63;;;23.70;94.30;;;;;;4955132;28;20470;-70
2022/11/01 11:11:32;;;;;;;11.90;11.30;;;23.10;95.20;;;;;;4954853;28;20464;-71
2022/11/01 11:14:00;;;;;;;11.30;10.70;;;22.70;95.90;;;;;;4955215;28;20452;-71
2022/11/01 11:16:32;;;;;;;10.80;10.40;;;22.40;96.30;;;;;;4954931;28;20449;-72
2022/11/01 11:19:14;;;;;;;11.40;10.70;;;22.30;96.70;;;;;;4955290;28;20487;-72
2022/11/01 11:21:43;;;;;;;11.07;10.57;;;22.50;97.00;;;;;;4955150;28;20452;-70
2022/11/01 11:24:18;;;;;;;11.40;11.00;;;22.30;97.20;;;;;;4955127;28;20459;-70
2022/11/01 11:26:48;;;;;;;11.13;10.73;;;21.80;97.80;;;;;;4955076;28;20539;-69
2022/11/01 11:29:34;;;;;;;11.93;11.33;;;21.90;98.20;;;;;;4954649;28;20440;-71
2022/11/01 11:32:01;;;;;;;11.23;10.73;;;22.00;98.00;;;;;;4954608;28;20467;-71
2022/11/01 11:34:30;;;;;;;12.03;11.63;;;22.10;98.20;;;;;;4954731;28;20915;-70
2022/11/01 11:36:58;;;;;;;12.10;11.70;;;22.40;97.40;;;;;;4954516;28;20474;-71
2022/11/01 11:39:26;;;;;;;12.30;11.90;;;22.80;97.00;;;;;;4954449;28;20448;-71
2022/11/01 11:41:55;;;;;;;12.70;12.20;;;23.20;96.40;;;;;;4953751;28;20437;-71
2022/11/01 11:44:42;;;;;;;12.50;11.93;;;23.60;95.50;;;;;;4953648;28;20842;-71
2022/11/01 11:47:21;;;;;;;12.13;11.57;;;24.10;94.60;;;;;;4952458;28;21037;-71
2022/11/01 11:49:52;;;;;;;12.73;12.10;;;24.30;93.80;;;;;;4952563;28;20480;-70
2022/11/01 11:52:21;;;;;;;12.60;12.10;;;24.70;93.40;;;;;;4951844;28;20512;-70
2022/11/01 11:54:48;;;;;;;12.10;11.70;;;25.00;92.50;;;;;;4953897;28;20472;-69
2022/11/01 11:57:20;;;;;;;12.80;12.10;;;25.40;92.20;;;;;;4953668;28;20970;-69
2022/11/01 11:59:52;;;;;;;12.00;11.60;;;24.80;92.10;;;;;;4952974;28;20453;-70
2022/11/01 12:02:22;;;;;;;12.50;12.00;;;24.20;93.50;;;;;;4951342;28;21006;-69
2022/11/01 12:04:54;;;;;;;13.20;12.53;;;24.00;93.90;;;;;;4953340;28;20979;-70
2022/11/01 12:07:27;;;;;;;11.30;10.90;;;23.80;94.10;;;;;;4951278;28;20511;-71
2022/11/01 12:09:55;;;;;;;13.43;12.87;;;23.60;94.10;;;;;;4952870;28;20940;-70
2022/11/01 12:12:26;;;;;;;11.73;11.30;;;23.10;95.30;;;;;;4953350;28;20452;-70
2022/11/01 12:14:54;;;;;;;12.07;11.67;;;22.60;95.80;;;;;;4953214;28;20452;-70
2022/11/01 12:17:26;;;;;;;11.90;11.50;;;22.10;96.80;;;;;;4953314;28;20440;-70
2022/11/01 12:19:59;;;;;;;12.50;11.80;;;22.10;96.40;;;;;;4953203;28;20441;-70
2022/11/01 12:22:29;;;;;;;11.80;11.30;;;21.90;96.90;;;;;;4953483;28;20448;-71
2022/11/01 12:25:00;;;;;;;12.00;11.40;;;22.00;96.90;;;;;;4950610;28;20440;-70
2022/11/01 12:27:32;;;;;;;12.43;11.70;;;21.70;97.30;;;;;;4953493;28;20444;-70
2022/11/01 12:30:03;;;;;;;12.50;12.00;;;21.50;97.50;;;;;;4951089;28;20476;-69
2022/11/01 12:32:36;;;;;;;12.70;12.13;;;21.50;98.40;;;;;;4953378;28;20543;-69
2022/11/01 12:35:15;;;;;;;12.30;11.80;;;21.40;98.70;;;;;;4951311;28;20449;-70
2022/11/01 12:37:49;;;;;;;12.27;11.57;;;20.80;99.90;;;;;;4951373;28;20433;-70
2022/11/01 12:40:18;;;;;;;13.07;12.57;;;20.40;99.90;;;;;;4950376;28;20444;-70
2022/11/01 12:42:51;;;;;;;13.27;12.60;;;20.10;99.90;;;;;;4952950;28;20950;-70
2022/11/01 12:45:24;;;;;;;13.03;12.07;;;20.00;99.90;;;;;;4950131;28;20468;-70
2022/11/01 12:47:57;;;;;;;13.30;12.70;;;19.90;99.90;;;;;;4952572;29;20491;-70
2022/11/01 12:50:29;;;;;;;13.10;12.33;;;20.00;99.90;;;;;;4952612;28;20476;-71
2022/11/01 12:53:00;;;;;;;13.57;12.60;;;20.40;99.90;;;;;;4952562;28;20950;-71
2022/11/01 12:55:33;;;;;;;12.70;12.20;;;21.30;99.90;;;;;;4954442;28;20471;-70
2022/11/01 12:58:02;;;;;;;14.00;12.97;;;21.80;99.90;;;;;;4950011;28;20441;-70
2022/11/01 13:00:36;;;;;;;12.70;11.90;;;21.90;99.90;;;;;;4952502;28;20440;-70
2022/11/01 13:03:19;;;;;;;13.03;12.43;;;21.60;99.90;;;;;;4951515;28;20530;-71
2022/11/01 13:05:53;;;;;;;13.87;13.10;;;21.20;99.90;;;;;;4950915;28;20448;-70
2022/11/01 13:08:28;;;;;;;13.20;12.43;;;20.70;99.90;;;;;;4950185;28;20461;-70
2022/11/01 13:10:58;;;;;;;13.10;12.50;;;20.70;99.90;;;;;;4954040;28;20472;-71
2022/11/01 13:13:31;;;;;;;12.23;11.57;;;20.70;99.90;;;;;;4952618;28;20521;-71
2022/11/01 13:16:04;;;;;;;12.60;11.80;;;20.50;99.90;;;;;;4952708;28;20882;-69
2022/11/01 13:18:42;;;;;;;12.83;12.33;;;20.50;99.90;;;;;;4952560;28;20456;-69
2022/11/01 13:21:16;;;;;;;12.30;11.70;;;20.40;99.90;;;;;;4952326;28;20818;-69
2022/11/01 13:23:49;;;;;;;12.77;12.00;;;20.10;99.90;;;;;;4952416;28;20458;-70
2022/11/01 13:26:21;;;;;;;13.00;12.50;;;19.70;99.90;;;;;;4952249;28;20460;-70
2022/11/01 13:29:00;;;;;;;12.83;12.00;;;19.80;99.90;;;;;;4963811;28;20543;-70
2022/11/01 13:31:37;;;;;;;13.90;13.20;;;19.60;99.90;;;;;;4971580;28;20835;-71
2022/11/01 13:34:20;;;;;;;13.50;12.50;;;19.60;99.90;;;;;;4971426;28;20447;-70
2022/11/01 13:36:53;;;;;;;12.73;11.93;;;19.60;99.90;;;;;;4971489;28;20450;-71
2022/11/01 13:39:26;;;;;;;12.20;11.50;;;19.30;99.90;;;;;;4971594;28;20538;-71
2022/11/01 13:41:59;;;;;;;12.53;11.90;;;19.20;99.90;;;;;;4971313;28;20473;-70
2022/11/01 13:44:31;;;;;;;12.80;11.87;;;19.10;99.90;;;;;;4971637;28;20490;-71
2022/11/01 13:47:28;;;;;;;12.97;12.10;;;19.10;99.90;;;;;;4971509;28;20875;-70
2022/11/01 13:50:26;;;;;;;12.30;11.80;;;19.10;99.90;;;;;;4970337;28;20456;-70
2022/11/01 13:52:58;;;;;;;13.30;12.40;;;18.90;99.90;;;;;;4941108;28;20463;-70
2022/11/01 13:55:30;;;;;;;13.00;12.40;;;18.80;99.90;;;;;;4971225;28;20448;-69
2022/11/01 13:57:57;;;;;;;12.87;12.27;;;18.70;99.90;;;;;;4971372;28;20448;-69
2022/11/01 14:00:42;;;;;;;12.30;11.50;;;18.60;99.90;;;;;;4970990;28;20451;-69
2022/11/01 14:03:22;;;;;;;11.90;11.30;;;18.70;99.90;;;;;;4957906;28;20463;-70
2022/11/01 14:06:30;;;;;;;13.40;12.40;;;18.70;99.90;;;;;;4951596;29;20459;-70
2022/11/01 14:09:26;;;;;;;13.37;12.57;;;18.70;99.90;;;;;;4937685;28;20500;-71
2022/11/01 14:11:55;;;;;;;12.70;12.00;;;18.50;99.90;;;;;;4951666;29;20488;-71
2022/11/01 14:14:52;;;;;;;11.50;11.00;;;18.40;99.90;;;;;;4951343;29;20457;-70
2022/11/01 14:17:49;;;;;;;11.57;10.93;;;18.30;99.90;;;;;;4892199;29;20614;-70
2022/11/01 14:20:41;;;;;;;11.87;11.20;;;18.20;99.90;;;;;;4949387;29;20961;-70
2022/11/01 14:23:51;;;;;;;11.70;11.20;;;18.10;99.90;;;;;;4937276;29;20943;-71
2022/11/01 14:26:25;;;;;;;12.50;11.70;;;17.80;99.90;;;;;;4923519;29;20581;-70
2022/11/01 14:28:54;;;;;;;13.20;12.23;;;17.80;99.90;;;;;;4951437;29;20453;-70
2022/11/01 14:31:22;;;;;;;13.33;12.53;;;17.70;99.90;;;;;;4951199;29;20484;-70
2022/11/01 14:33:51;;;;;;;13.00;12.50;;;17.70;99.90;;;;;;4951377;29;20471;-71
2022/11/01 14:36:21;;;;;;;14.10;13.30;;;17.70;99.90;;;;;;4952484;29;20453;-69
2022/11/01 14:38:53;;;;;;;13.87;12.73;;;17.80;99.90;;;;;;4951525;29;20457;-70
2022/11/01 14:41:21;;;;;;;11.57;10.90;;;17.80;99.90;;;;;;4951314;29;20471;-70
2022/11/01 14:43:52;;;;;;;13.30;12.63;;;17.80;99.90;;;;;;4950906;29;20531;-70
2022/11/01 14:46:24;;;;;;;13.63;12.93;;;17.90;99.90;;;;;;4950821;29;21345;-70
2022/11/01 14:48:59;;;;;;;13.13;12.13;;;17.90;99.90;;;;;;4951095;29;20444;-71
2022/11/01 14:51:31;;;;;;;13.23;12.63;;;17.90;99.90;;;;;;4951299;29;21005;-70
2022/11/01 14:54:06;;;;;;;12.53;11.87;;;17.90;99.90;;;;;;4951373;29;20546;-70
2022/11/01 14:56:35;;;;;;;13.53;12.80;;;17.80;99.90;;;;;;4951013;29;20456;-70
2022/11/01 14:59:12;;;;;;;12.87;12.13;;;17.70;99.90;;;;;;4950869;29;20464;-70
2022/11/01 15:01:44;;;;;;;17.33;16.30;;;17.80;99.90;;;;;;4952379;28;20449;-70
2022/11/01 15:04:20;;;;;;;23.50;21.93;;;17.70;99.90;;;;;;4968662;28;20890;-69
2022/11/01 15:06:47;;;;;;;16.10;15.10;;;17.70;99.90;;;;;;4970623;28;20455;-70
2022/11/01 15:09:20;;;;;;;14.00;13.40;;;17.70;99.90;;;;;;4971070;28;20443;-69
2022/11/01 15:11:47;;;;;;;14.43;13.33;;;17.70;99.90;;;;;;4970741;28;20501;-70
2022/11/01 15:14:22;;;;;;;13.57;12.93;;;17.80;99.90;;;;;;4970445;28;20462;-71
2022/11/01 15:16:50;;;;;;;13.47;12.87;;;17.70;99.90;;;;;;4970326;28;20446;-69
2022/11/01 15:19:26;;;;;;;13.93;13.13;;;17.60;99.90;;;;;;4970373;28;20447;-68
2022/11/01 15:21:54;;;;;;;13.43;12.80;;;17.50;99.90;;;;;;4973331;28;20453;-69
2022/11/01 15:24:24;;;;;;;13.60;12.77;;;17.50;99.90;;;;;;4974023;28;20455;-71
2022/11/01 15:26:52;;;;;;;13.73;13.03;;;17.50;99.90;;;;;;4973953;28;20471;-75
2022/11/01 15:29:21;;;;;;;13.53;12.93;;;17.50;99.90;;;;;;4973290;28;20569;-72
2022/11/01 15:31:55;;;;;;;14.40;13.50;;;17.40;99.90;;;;;;4971087;28;20484;-72
2022/11/01 15:34:25;;;;;;;13.47;12.47;;;17.40;99.90;;;;;;4971451;28;20456;-73
2022/11/01 15:36:52;;;;;;;13.70;13.10;;;17.30;99.90;;;;;;4973748;28;20895;-73
2022/11/01 15:39:21;;;;;;;13.70;12.90;;;17.20;99.90;;;;;;4973981;28;20452;-73
2022/11/01 15:41:49;;;;;;;14.00;13.30;;;17.10;99.90;;;;;;4973714;28;20448;-73
2022/11/01 15:44:21;;;;;;;14.07;13.07;;;17.00;99.90;;;;;;4973369;28;20491;-73
2022/11/01 15:46:50;;;;;;;12.93;12.23;;;16.90;99.90;;;;;;4973366;28;20490;-73
2022/11/01 15:49:20;;;;;;;14.33;13.53;;;16.90;99.90;;;;;;4973163;28;20448;-73
2022/11/01 15:51:52;;;;;;;14.10;13.40;;;16.80;99.90;;;;;;4969523;28;20491;-73
2022/11/01 15:54:26;;;;;;;13.67;13.07;;;16.80;99.90;;;;;;4973276;28;20455;-72
2022/11/01 15:56:55;;;;;;;14.30;13.60;;;16.60;99.90;;;;;;4973262;28;20453;-72
2022/11/01 15:59:27;;;;;;;14.83;14.10;;;16.50;99.90;;;;;;4972891;28;20471;-74
2022/11/01 16:01:55;;;;;;;14.20;13.40;;;16.30;99.90;;;;;;4969892;28;20527;-73
2022/11/01 16:04:23;;;;;;;14.33;13.60;;;16.10;99.90;;;;;;4953312;29;20490;-73
2022/11/01 16:06:56;;;;;;;14.70;13.80;;;16.00;99.90;;;;;;4953651;28;20455;-73
2022/11/01 16:09:36;;;;;;;13.90;12.90;;;15.90;99.90;;;;;;4953678;28;20962;-72
2022/11/01 16:12:05;;;;;;;14.63;13.70;;;15.80;99.90;;;;;;4946789;28;20571;-72
2022/11/01 16:14:34;;;;;;;14.80;13.53;;;15.70;99.90;;;;;;4951941;28;20448;-72
2022/11/01 16:17:02;;;;;;;15.00;14.30;;;15.60;99.90;;;;;;4952035;28;20888;-72
2022/11/01 16:19:36;;;;;;;15.97;15.13;;;15.40;99.90;;;;;;4949962;28;20864;-72
2022/11/01 16:22:24;;;;;;;14.83;14.13;;;15.30;99.90;;;;;;4951875;28;20432;-72
2022/11/01 16:25:01;;;;;;;34.43;31.40;;;15.30;99.90;;;;;;4950222;28;20583;-72
2022/11/01 16:27:28;;;;;;;20.80;19.40;;;15.10;99.90;;;;;;4950010;28;20464;-72
2022/11/01 16:29:55;;;;;;;18.47;17.17;;;15.00;99.90;;;;;;4951784;28;20444;-72
2022/11/01 16:32:26;;;;;;;18.57;17.47;;;14.90;99.90;;;;;;4950600;28;20481;-72
2022/11/01 16:34:54;;;;;;;18.07;17.03;;;14.80;99.90;;;;;;4951457;28;20480;-72
2022/11/01 16:37:24;;;;;;;17.37;16.37;;;14.70;99.90;;;;;;4952250;28;20463;-73
2022/11/01 16:39:51;;;;;;;18.00;17.00;;;14.60;99.90;;;;;;4953255;28;20460;-72
2022/11/01 16:42:19;;;;;;;17.57;16.77;;;14.50;99.90;;;;;;4953039;28;20444;-72
2022/11/01 16:44:48;;;;;;;16.97;16.07;;;14.40;99.90;;;;;;4953083;28;20469;-72
2022/11/01 16:47:16;;;;;;;18.07;16.90;;;14.30;99.90;;;;;;4952829;28;20488;-72
2022/11/01 16:49:47;;;;;;;17.97;16.57;;;14.20;99.90;;;;;;4953066;28;20943;-72
2022/11/01 16:52:14;;;;;;;17.13;16.23;;;14.10;99.90;;;;;;4952903;28;20491;-73
2022/11/01 16:54:42;;;;;;;17.90;16.57;;;13.90;99.90;;;;;;4953058;28;20452;-72
2022/11/01 16:57:20;;;;;;;17.90;17.00;;;13.70;99.90;;;;;;4952913;29;20568;-72
2022/11/01 16:59:47;;;;;;;19.33;18.03;;;13.70;99.90;;;;;;4952723;28;21018;-72
2022/11/01 17:02:17;;;;;;;22.90;21.00;;;13.60;99.90;;;;;;4958881;28;20436;-74
2022/11/01 17:04:45;;;;;;;20.03;18.50;;;13.60;99.90;;;;;;4972487;28;20464;-73
2022/11/01 17:07:12;;;;;;;21.73;19.97;;;13.50;99.90;;;;;;4972338;28;20443;-73
2022/11/01 17:09:39;;;;;;;17.23;16.10;;;13.40;99.90;;;;;;4972278;28;20466;-73
2022/11/01 17:12:08;;;;;;;17.00;15.60;;;13.20;99.90;;;;;;4958603;28;20480;-73
2022/11/01 17:14:36;;;;;;;16.57;15.70;;;13.20;99.90;;;;;;4952405;28;20462;-74
2022/11/01 17:17:07;;;;;;;18.53;17.33;;;13.20;99.90;;;;;;4952568;28;20868;-74
2022/11/01 17:19:35;;;;;;;16.97;15.47;;;13.20;99.90;;;;;;4952462;28;20464;-73
2022/11/01 17:22:06;;;;;;;16.80;15.80;;;13.10;99.90;;;;;;4952181;28;20529;-72
2022/11/01 17:24:34;;;;;;;17.00;16.20;;;13.00;99.90;;;;;;4952003;28;20794;-73
2022/11/01 17:27:04;;;;;;;18.43;16.90;;;12.90;99.90;;;;;;4952230;28;20515;-72
2022/11/01 17:29:33;;;;;;;17.90;16.30;;;12.80;99.90;;;;;;4952303;28;20452;-73
2022/11/01 17:32:01;;;;;;;17.90;16.93;;;12.80;99.90;;;;;;4951986;28;20491;-72